Time;durP1;ratioP1;P1;durP2;ratioP2;P2;SDS_P1;SDS_P2;PMS_P1;PMS_P2;Temp;Humidity;BMP_temperature;BMP_pressure;BME280_temperature;BME280_humidity;BME280_pressure;Samples;Min_cycle;Max_cycle;Signal;HPM_P1;HPM_P2
2022/10/09 00:01:19;;;;;;;6.80;2.50;;;;;;;;;;5039945;28;20188;-73
2022/10/09 00:03:45;;;;;;;4.37;2.57;;;;;;;;;;5028159;28;20203;-72
2022/10/09 00:06:12;;;;;;;3.30;2.83;;;;;;;;;;5030070;28;20179;-72
2022/10/09 00:08:38;;;;;;;5.83;2.50;;;;;;;;;;5028429;28;20191;-72
2022/10/09 00:11:05;;;;;;;5.27;2.53;;;;;;;;;;5027725;28;20207;-73
2022/10/09 00:13:30;;;;;;;4.40;2.90;;;;;;;;;;5028479;28;20176;-72
2022/10/09 00:15:55;;;;;;;8.47;2.93;;;;;;;;;;5030691;28;20185;-72
2022/10/09 00:18:20;;;;;;;3.27;2.90;;;;;;;;;;5023835;28;20207;-72
2022/10/09 00:20:46;;;;;;;4.63;2.63;;;;;;;;;;5030940;28;20233;-73
2022/10/09 00:23:16;;;;;;;3.73;2.47;;;;;;;;;;5028106;28;20175;-72
2022/10/09 00:25:57;;;;;;;4.83;2.83;;;;;;;;;;5031500;28;20212;-72
2022/10/09 00:28:23;;;;;;;5.53;2.90;;;;;;;;;;5029521;28;20185;-72
2022/10/09 00:30:49;;;;;;;6.33;3.20;;;;;;;;;;5027495;28;20186;-72
2022/10/09 00:33:14;;;;;;;5.13;3.07;;;;;;;;;;5041898;28;20177;-73
2022/10/09 00:35:40;;;;;;;4.43;2.70;;;;;;;;;;5028207;28;20183;-72
2022/10/09 00:38:06;;;;;;;4.27;3.17;;;;;;;;;;5025911;28;20207;-72
2022/10/09 00:40:31;;;;;;;6.47;3.13;;;;;;;;;;5042945;28;20179;-72
2022/10/09 00:42:57;;;;;;;4.20;3.20;;;;;;;;;;5028433;28;20221;-73
2022/10/09 00:45:22;;;;;;;5.83;3.00;;;;;;;;;;5033782;28;20221;-72
2022/10/09 00:47:50;;;;;;;4.30;3.10;;;;;;;;;;5028818;28;20232;-72
2022/10/09 00:50:21;;;;;;;7.80;2.90;;;;;;;;;;5025566;28;20187;-72
2022/10/09 00:52:48;;;;;;;5.17;3.10;;;;;;;;;;5029773;28;20186;-72
2022/10/09 00:55:14;;;;;;;7.77;3.67;;;;;;;;;;5027010;28;20194;-72
2022/10/09 00:57:40;;;;;;;4.50;3.40;;;;;;;;;;5030269;28;20202;-71
2022/10/09 01:00:07;;;;;;;4.77;3.27;;;;;;;;;;5027202;28;20183;-72
2022/10/09 01:02:32;;;;;;;9.80;3.47;;;;;;;;;;5026681;28;20186;-73
2022/10/09 01:04:58;;;;;;;4.83;3.53;;;;;;;;;;5028354;28;20206;-71
2022/10/09 01:07:28;;;;;;;4.57;3.30;;;;;;;;;;5034618;28;20181;-72
2022/10/09 01:10:07;;;;;;;5.27;3.47;;;;;;;;;;5036489;28;20531;-72
2022/10/09 01:12:40;;;;;;;5.80;3.83;;;;;;;;;;5032366;28;20253;-72
2022/10/09 01:15:08;;;;;;;7.47;3.90;;;;;;;;;;5036611;28;20328;-72
2022/10/09 01:17:36;;;;;;;3.97;3.20;;;;;;;;;;5035334;28;20179;-72
2022/10/09 01:20:21;;;;;;;4.37;2.77;;;;;;;;;;5034315;28;20265;-72
2022/10/09 01:22:55;;;;;;;7.63;3.97;;;;;;;;;;5035656;28;20179;-72
2022/10/09 01:25:53;;;;;;;4.00;3.07;;;;;;;;;;5034223;28;20199;-72
2022/10/09 01:28:19;;;;;;;6.77;3.23;;;;;;;;;;5000307;28;20206;-72
2022/10/09 01:30:45;;;;;;;5.10;3.33;;;;;;;;;;5034519;28;20179;-72
2022/10/09 01:33:11;;;;;;;5.13;3.40;;;;;;;;;;5033101;28;20262;-72
2022/10/09 01:35:37;;;;;;;5.40;4.67;;;;;;;;;;5033399;28;20251;-72
2022/10/09 01:38:03;;;;;;;4.80;3.97;;;;;;;;;;5038020;28;20210;-72
2022/10/09 01:40:28;;;;;;;3.90;3.50;;;;;;;;;;5032544;28;20216;-73
2022/10/09 01:42:54;;;;;;;4.60;3.50;;;;;;;;;;5032410;28;20178;-72
2022/10/09 01:45:19;;;;;;;5.10;3.57;;;;;;;;;;5036495;28;20259;-72
2022/10/09 01:47:45;;;;;;;6.67;3.97;;;;;;;;;;5035463;28;20234;-72
2022/10/09 01:50:22;;;;;;;4.90;3.40;;;;;;;;;;5034729;28;20183;-72
2022/10/09 01:52:57;;;;;;;3.87;3.57;;;;;;;;;;5029278;28;20183;-72
2022/10/09 01:55:25;;;;;;;5.60;3.03;;;;;;;;;;5034391;28;20178;-72
2022/10/09 01:57:54;;;;;;;8.57;3.60;;;;;;;;;;5034377;28;20187;-72
2022/10/09 02:00:19;;;;;;;5.50;2.93;;;;;;;;;;5034631;28;20186;-72
2022/10/09 02:02:45;;;;;;;4.20;3.17;;;;;;;;;;5043808;28;20190;-72
2022/10/09 02:05:14;;;;;;;3.57;2.70;;;;;;;;;;5031881;28;20199;-72
2022/10/09 02:07:39;;;;;;;4.80;3.17;;;;;;;;;;5036145;28;20179;-72
2022/10/09 02:10:05;;;;;;;6.83;3.57;;;;;;;;;;5036599;28;20174;-72
2022/10/09 02:12:33;;;;;;;6.63;3.20;;;;;;;;;;5035477;28;20175;-73
2022/10/09 02:14:58;;;;;;;6.30;3.60;;;;;;;;;;5031995;28;20317;-72
2022/10/09 02:17:26;;;;;;;3.70;3.37;;;;;;;;;;5047919;28;20266;-71
2022/10/09 02:20:21;;;;;;;10.33;3.03;;;;;;;;;;5032710;28;20183;-71
2022/10/09 02:22:47;;;;;;;8.00;3.93;;;;;;;;;;5018581;28;20221;-71
2022/10/09 02:25:12;;;;;;;6.73;3.83;;;;;;;;;;5031267;28;20206;-71
2022/10/09 02:27:38;;;;;;;4.83;3.20;;;;;;;;;;5034713;28;20274;-72
2022/10/09 02:30:06;;;;;;;5.67;3.63;;;;;;;;;;5048885;28;20175;-72
2022/10/09 02:32:31;;;;;;;6.13;3.90;;;;;;;;;;5029388;28;20179;-73
2022/10/09 02:34:56;;;;;;;4.50;3.53;;;;;;;;;;5030036;28;20179;-72
2022/10/09 02:37:21;;;;;;;5.03;3.20;;;;;;;;;;5029688;28;20236;-71
2022/10/09 02:39:47;;;;;;;4.67;3.23;;;;;;;;;;5028952;28;20275;-72
2022/10/09 02:42:12;;;;;;;4.70;3.57;;;;;;;;;;5033062;28;20269;-72
2022/10/09 02:44:37;;;;;;;4.80;3.13;;;;;;;;;;5032125;28;20211;-72
2022/10/09 02:47:02;;;;;;;6.27;3.07;;;;;;;;;;5030850;28;20201;-72
2022/10/09 02:49:27;;;;;;;6.07;3.23;;;;;;;;;;5028811;28;20246;-72
2022/10/09 02:51:53;;;;;;;6.90;3.50;;;;;;;;;;5046529;28;20181;-72
2022/10/09 02:54:18;;;;;;;4.07;3.20;;;;;;;;;;5026599;28;20189;-72
2022/10/09 02:56:43;;;;;;;3.50;2.90;;;;;;;;;;5031733;28;20179;-72
2022/10/09 02:59:08;;;;;;;6.37;3.70;;;;;;;;;;5029378;28;20262;-72
2022/10/09 03:01:34;;;;;;;6.27;3.27;;;;;;;;;;5030356;28;20183;-72
2022/10/09 03:03:59;;;;;;;5.10;3.20;;;;;;;;;;5027373;28;20230;-72
2022/10/09 03:06:25;;;;;;;5.23;3.33;;;;;;;;;;5026924;28;20183;-72
2022/10/09 03:08:51;;;;;;;5.37;3.50;;;;;;;;;;5032844;28;20179;-73
2022/10/09 03:11:17;;;;;;;4.17;3.37;;;;;;;;;;5028831;28;20173;-72
2022/10/09 03:13:42;;;;;;;5.80;3.00;;;;;;;;;;5031303;28;20189;-72
2022/10/09 03:16:07;;;;;;;5.87;3.20;;;;;;;;;;5032164;28;20178;-72
2022/10/09 03:18:33;;;;;;;6.73;3.43;;;;;;;;;;5029841;28;20201;-72
2022/10/09 03:20:58;;;;;;;4.43;3.57;;;;;;;;;;5030624;28;20182;-72
2022/10/09 03:23:24;;;;;;;6.13;3.57;;;;;;;;;;5024311;28;20260;-72
2022/10/09 03:25:59;;;;;;;5.53;3.50;;;;;;;;;;5025102;28;20367;-72
2022/10/09 03:28:24;;;;;;;3.93;2.93;;;;;;;;;;5020211;28;20281;-73
2022/10/09 03:30:49;;;;;;;7.57;4.47;;;;;;;;;;5028115;28;20217;-72
2022/10/09 03:33:15;;;;;;;5.20;3.47;;;;;;;;;;5031436;28;20201;-72
2022/10/09 03:35:40;;;;;;;7.43;3.40;;;;;;;;;;5034003;28;20244;-73
2022/10/09 03:38:05;;;;;;;3.70;3.10;;;;;;;;;;5047083;28;20473;-71
2022/10/09 03:40:30;;;;;;;5.67;3.73;;;;;;;;;;5023441;28;20269;-72
2022/10/09 03:42:56;;;;;;;5.50;3.70;;;;;;;;;;5031434;28;20218;-72
2022/10/09 03:45:21;;;;;;;4.77;3.20;;;;;;;;;;5030345;28;20222;-73
2022/10/09 03:47:46;;;;;;;8.37;3.27;;;;;;;;;;5028357;28;20253;-72
2022/10/09 03:50:11;;;;;;;7.57;3.47;;;;;;;;;;5029071;28;20183;-72
2022/10/09 03:52:36;;;;;;;4.43;3.40;;;;;;;;;;5030331;28;20182;-72
2022/10/09 03:55:02;;;;;;;6.33;4.10;;;;;;;;;;5028640;28;20397;-72
2022/10/09 03:57:27;;;;;;;4.57;3.70;;;;;;;;;;5029863;28;20254;-72
2022/10/09 03:59:52;;;;;;;6.30;3.80;;;;;;;;;;5030833;28;20202;-72
2022/10/09 04:02:18;;;;;;;3.73;3.33;;;;;;;;;;5026321;28;20404;-72
2022/10/09 04:04:43;;;;;;;6.47;3.60;;;;;;;;;;5031234;28;20206;-72
2022/10/09 04:07:08;;;;;;;5.77;3.43;;;;;;;;;;5029173;28;20273;-72
2022/10/09 04:09:33;;;;;;;4.30;3.50;;;;;;;;;;5031819;28;20174;-72
2022/10/09 04:11:58;;;;;;;7.37;3.87;;;;;;;;;;5030126;28;20220;-72
2022/10/09 04:14:23;;;;;;;5.93;3.30;;;;;;;;;;5023940;28;20240;-73
2022/10/09 04:16:49;;;;;;;4.70;3.37;;;;;;;;;;5031397;28;20184;-72
2022/10/09 04:19:14;;;;;;;5.53;3.40;;;;;;;;;;5030336;28;20208;-73
2022/10/09 04:21:39;;;;;;;8.87;3.87;;;;;;;;;;5026116;28;20299;-72
2022/10/09 04:24:07;;;;;;;4.30;3.40;;;;;;;;;;5028689;28;20199;-71
2022/10/09 04:26:32;;;;;;;4.33;3.60;;;;;;;;;;5029894;28;20185;-73
2022/10/09 04:28:57;;;;;;;4.43;3.40;;;;;;;;;;5046779;28;20175;-73
2022/10/09 04:31:22;;;;;;;5.00;2.93;;;;;;;;;;5028006;28;20175;-72
2022/10/09 04:33:48;;;;;;;4.97;3.17;;;;;;;;;;5028773;28;20288;-72
2022/10/09 04:36:13;;;;;;;6.73;3.67;;;;;;;;;;5040506;28;20237;-72
2022/10/09 04:38:38;;;;;;;5.30;3.23;;;;;;;;;;5029532;28;20187;-72
2022/10/09 04:41:04;;;;;;;5.53;3.33;;;;;;;;;;5028833;28;20316;-72
2022/10/09 04:43:31;;;;;;;5.23;3.43;;;;;;;;;;5026689;28;20190;-72
2022/10/09 04:45:56;;;;;;;6.27;3.80;;;;;;;;;;5029152;28;20286;-72
2022/10/09 04:48:21;;;;;;;8.03;3.40;;;;;;;;;;5043381;28;20518;-72
2022/10/09 04:50:47;;;;;;;5.60;3.73;;;;;;;;;;5029537;28;20186;-72
2022/10/09 04:53:13;;;;;;;5.87;3.30;;;;;;;;;;5027781;28;20182;-72
2022/10/09 04:55:39;;;;;;;6.47;4.03;;;;;;;;;;5029389;28;20193;-72
2022/10/09 04:58:04;;;;;;;7.77;3.67;;;;;;;;;;5026841;28;20185;-72
2022/10/09 05:00:30;;;;;;;6.67;3.30;;;;;;;;;;5030309;28;20184;-72
2022/10/09 05:02:55;;;;;;;6.00;3.80;;;;;;;;;;5029257;28;20205;-72
2022/10/09 05:05:20;;;;;;;6.03;3.80;;;;;;;;;;5027080;28;20217;-72
2022/10/09 05:07:45;;;;;;;6.57;3.73;;;;;;;;;;5029083;28;20465;-72
2022/10/09 05:10:10;;;;;;;5.60;3.77;;;;;;;;;;5028816;28;20178;-72
2022/10/09 05:12:36;;;;;;;6.53;3.73;;;;;;;;;;5027490;28;20174;-73
2022/10/09 05:15:01;;;;;;;6.47;3.77;;;;;;;;;;5044723;28;20189;-73
2022/10/09 05:17:26;;;;;;;7.33;3.33;;;;;;;;;;5029341;28;20185;-72
2022/10/09 05:19:51;;;;;;;6.67;4.03;;;;;;;;;;5029687;28;20191;-73
2022/10/09 05:22:17;;;;;;;4.30;3.47;;;;;;;;;;5026252;28;20197;-72
2022/10/09 05:24:42;;;;;;;3.83;3.43;;;;;;;;;;5027188;28;20205;-72
2022/10/09 05:27:07;;;;;;;4.70;3.73;;;;;;;;;;5027081;28;20181;-73
2022/10/09 05:29:32;;;;;;;7.63;3.67;;;;;;;;;;5027066;28;20236;-72
2022/10/09 05:31:57;;;;;;;4.33;3.37;;;;;;;;;;5040137;28;20206;-73
2022/10/09 05:34:23;;;;;;;5.97;3.97;;;;;;;;;;5028795;28;20191;-72
2022/10/09 05:36:48;;;;;;;9.10;4.30;;;;;;;;;;5022995;28;20198;-73
2022/10/09 05:39:13;;;;;;;8.10;4.70;;;;;;;;;;5044098;28;20192;-73
2022/10/09 05:41:38;;;;;;;8.03;3.83;;;;;;;;;;5027702;28;20208;-72
2022/10/09 05:44:03;;;;;;;5.73;3.27;;;;;;;;;;5042537;28;20222;-72
2022/10/09 05:46:29;;;;;;;5.83;3.43;;;;;;;;;;5025603;28;20207;-73
2022/10/09 05:49:04;;;;;;;8.33;3.97;;;;;;;;;;5029014;28;20263;-72
2022/10/09 05:51:30;;;;;;;7.20;3.60;;;;;;;;;;5030333;28;20302;-72
2022/10/09 05:53:56;;;;;;;5.60;3.40;;;;;;;;;;5029433;28;20181;-73
2022/10/09 05:56:21;;;;;;;8.43;3.93;;;;;;;;;;5032687;28;20186;-72
2022/10/09 05:58:54;;;;;;;6.73;3.77;;;;;;;;;;5032525;28;20180;-72
2022/10/09 06:01:20;;;;;;;4.73;3.63;;;;;;;;;;5032168;28;20186;-73
2022/10/09 06:03:49;;;;;;;6.37;4.77;;;;;;;;;;5026747;28;20193;-72
2022/10/09 06:06:15;;;;;;;5.23;3.40;;;;;;;;;;5030591;28;20167;-72
2022/10/09 06:08:40;;;;;;;7.47;4.77;;;;;;;;;;5035744;28;20183;-72
2022/10/09 06:11:09;;;;;;;4.90;4.10;;;;;;;;;;5030443;28;20177;-72
2022/10/09 06:13:34;;;;;;;4.53;3.87;;;;;;;;;;5031721;28;20211;-72
2022/10/09 06:16:00;;;;;;;6.40;4.10;;;;;;;;;;5038884;28;20222;-72
2022/10/09 06:18:26;;;;;;;5.33;3.50;;;;;;;;;;5032177;28;20194;-72
2022/10/09 06:20:52;;;;;;;5.30;3.90;;;;;;;;;;5031491;28;20186;-71
2022/10/09 06:23:17;;;;;;;5.40;4.50;;;;;;;;;;5032245;28;20179;-72
2022/10/09 06:25:56;;;;;;;7.97;4.10;;;;;;;;;;5031973;28;20287;-73
2022/10/09 06:28:21;;;;;;;5.90;4.10;;;;;;;;;;5027279;28;20181;-73
2022/10/09 06:30:47;;;;;;;5.57;3.90;;;;;;;;;;5028506;28;20178;-72
2022/10/09 06:33:12;;;;;;;5.50;3.70;;;;;;;;;;5029212;28;20175;-73
2022/10/09 06:35:38;;;;;;;6.63;4.40;;;;;;;;;;5030697;28;20236;-72
2022/10/09 06:38:03;;;;;;;5.43;4.33;;;;;;;;;;5028252;28;20181;-72
2022/10/09 06:40:28;;;;;;;6.30;5.07;;;;;;;;;;5045829;28;20185;-72
2022/10/09 06:42:53;;;;;;;6.43;4.40;;;;;;;;;;5046569;28;20184;-72
2022/10/09 06:45:18;;;;;;;7.57;4.17;;;;;;;;;;5032203;28;20200;-72
2022/10/09 06:47:44;;;;;;;4.63;4.20;;;;;;;;;;5027650;28;20245;-72
2022/10/09 06:50:09;;;;;;;6.63;4.40;;;;;;;;;;5030523;28;20176;-73
2022/10/09 06:52:34;;;;;;;6.53;4.13;;;;;;;;;;5031913;28;20178;-72
2022/10/09 06:54:59;;;;;;;6.23;3.97;;;;;;;;;;5030991;28;20179;-73
2022/10/09 06:57:24;;;;;;;5.97;4.07;;;;;;;;;;5029010;28;20280;-72
2022/10/09 06:59:50;;;;;;;5.43;3.93;;;;;;;;;;5030548;28;20195;-72
2022/10/09 07:02:15;;;;;;;9.27;4.27;;;;;;;;;;5029688;28;20191;-73
2022/10/09 07:04:41;;;;;;;6.23;4.20;;;;;;;;;;5026501;28;20237;-72
2022/10/09 07:07:06;;;;;;;5.97;5.03;;;;;;;;;;5047258;28;20207;-72
2022/10/09 07:09:31;;;;;;;9.00;4.57;;;;;;;;;;5032039;28;20208;-72
2022/10/09 07:11:56;;;;;;;8.63;4.17;;;;;;;;;;5030501;28;20177;-72
2022/10/09 07:14:21;;;;;;;5.63;4.50;;;;;;;;;;5030709;28;20207;-73
2022/10/09 07:16:47;;;;;;;8.17;4.53;;;;;;;;;;5032561;28;20180;-73
2022/10/09 07:19:13;;;;;;;7.67;4.97;;;;;;;;;;5030272;28;20173;-71
2022/10/09 07:21:40;;;;;;;6.07;4.30;;;;;;;;;;5031761;28;20188;-72
2022/10/09 07:24:05;;;;;;;5.47;3.80;;;;;;;;;;5031185;28;20218;-72
2022/10/09 07:26:32;;;;;;;4.37;3.97;;;;;;;;;;5022488;28;20180;-72
2022/10/09 07:28:58;;;;;;;6.23;4.30;;;;;;;;;;5031208;28;20181;-72
2022/10/09 07:31:24;;;;;;;7.13;4.00;;;;;;;;;;5029728;28;20183;-72
2022/10/09 07:33:49;;;;;;;5.63;4.27;;;;;;;;;;5028126;28;20178;-72
2022/10/09 07:36:15;;;;;;;6.97;4.10;;;;;;;;;;5027587;28;24592;-72
2022/10/09 07:38:40;;;;;;;7.17;4.27;;;;;;;;;;5029676;28;20182;-72
2022/10/09 07:41:07;;;;;;;7.57;4.57;;;;;;;;;;5031532;28;20207;-72
2022/10/09 07:43:36;;;;;;;4.70;3.67;;;;;;;;;;5024372;28;20181;-72
2022/10/09 07:46:02;;;;;;;6.67;4.40;;;;;;;;;;5031625;28;20214;-71
2022/10/09 07:48:27;;;;;;;4.77;4.30;;;;;;;;;;5029129;28;20226;-72
2022/10/09 07:50:53;;;;;;;7.03;4.67;;;;;;;;;;5027726;28;20186;-74
2022/10/09 07:53:19;;;;;;;6.60;3.63;;;;;;;;;;5026342;28;20203;-74
2022/10/09 07:55:45;;;;;;;6.00;4.20;;;;;;;;;;5028269;28;20220;-74
2022/10/09 07:58:11;;;;;;;5.07;3.73;;;;;;;;;;5029862;28;20194;-72
2022/10/09 08:00:36;;;;;;;8.50;4.47;;;;;;;;;;5026402;28;20190;-71
2022/10/09 08:03:01;;;;;;;7.60;5.57;;;;;;;;;;5030237;28;20235;-71
2022/10/09 08:05:26;;;;;;;7.23;4.77;;;;;;;;;;5025582;28;20214;-72
2022/10/09 08:07:52;;;;;;;7.77;4.77;;;;;;;;;;5034463;28;20278;-72
2022/10/09 08:10:17;;;;;;;17.83;8.00;;;;;;;;;;5026466;28;20175;-72
2022/10/09 08:12:42;;;;;;;8.03;4.10;;;;;;;;;;5029797;28;20217;-71
2022/10/09 08:15:08;;;;;;;6.40;3.97;;;;;;;;;;5046740;28;20180;-72
2022/10/09 08:17:33;;;;;;;7.10;3.90;;;;;;;;;;5026810;28;20179;-72
2022/10/09 08:19:58;;;;;;;5.63;4.60;;;;;;;;;;5029623;28;20175;-71
2022/10/09 08:22:23;;;;;;;5.77;4.23;;;;;;;;;;5030317;28;20189;-71
2022/10/09 08:24:48;;;;;;;7.73;4.00;;;;;;;;;;5029301;28;20202;-72
2022/10/09 08:27:14;;;;;;;6.93;4.00;;;;;;;;;;5028158;28;20182;-71
2022/10/09 08:29:39;;;;;;;7.50;4.93;;;;;;;;;;5028549;28;20178;-72
2022/10/09 08:32:04;;;;;;;7.60;4.60;;;;;;;;;;5026700;28;20373;-71
2022/10/09 08:34:29;;;;;;;5.77;4.20;;;;;;;;;;5026069;28;20210;-72
2022/10/09 08:36:54;;;;;;;4.00;3.53;;;;;;;;;;5044400;28;20189;-72
2022/10/09 08:39:20;;;;;;;5.53;4.07;;;;;;;;;;5028575;28;20331;-72
2022/10/09 08:41:52;;;;;;;5.40;3.77;;;;;;;;;;5031009;28;20206;-73
2022/10/09 08:44:30;;;;;;;4.13;3.63;;;;;;;;;;5022484;28;20267;-73
2022/10/09 08:46:58;;;;;;;4.47;3.67;;;;;;;;;;5032544;28;20209;-71
2022/10/09 08:49:39;;;;;;;5.83;4.37;;;;;;;;;;5039733;28;20217;-71
2022/10/09 08:52:14;;;;;;;6.00;4.30;;;;;;;;;;5031432;28;20202;-72
2022/10/09 08:54:39;;;;;;;8.57;4.50;;;;;;;;;;5027891;28;20194;-72
2022/10/09 08:57:09;;;;;;;6.33;4.03;;;;;;;;;;5040623;28;20241;-72
2022/10/09 08:59:35;;;;;;;7.13;3.83;;;;;;;;;;5024139;28;20183;-72
2022/10/09 09:02:06;;;;;;;8.00;3.73;;;;;;;;;;5026274;28;20217;-73
2022/10/09 09:04:40;;;;;;;5.30;3.93;;;;;;;;;;5030608;28;20202;-72
2022/10/09 09:07:11;;;;;;;5.60;3.57;;;;;;;;;;5029353;28;20182;-73
2022/10/09 09:09:41;;;;;;;8.93;3.77;;;;;;;;;;5027663;28;20253;-72
2022/10/09 09:12:19;;;;;;;6.93;3.63;;;;;;;;;;5026489;28;20305;-72
2022/10/09 09:14:44;;;;;;;5.20;3.37;;;;;;;;;;5027239;28;20179;-72
2022/10/09 09:17:25;;;;;;;7.57;3.53;;;;;;;;;;5030031;28;20209;-72
2022/10/09 09:20:03;;;;;;;3.87;3.43;;;;;;;;;;5044255;28;20236;-72
2022/10/09 09:22:28;;;;;;;3.90;3.30;;;;;;;;;;5027697;28;20189;-72
2022/10/09 09:24:55;;;;;;;5.17;4.73;;;;;;;;;;5030618;28;20211;-71
2022/10/09 09:27:25;;;;;;;4.00;2.97;;;;;;;;;;5029808;28;20175;-72
2022/10/09 09:29:57;;;;;;;4.87;3.20;;;;;;;;;;5030235;28;20187;-71
2022/10/09 09:32:23;;;;;;;4.70;3.17;;;;;;;;;;5031665;28;20176;-72
2022/10/09 09:34:49;;;;;;;9.40;3.47;;;;;;;;;;5030464;28;20184;-72
2022/10/09 09:37:14;;;;;;;4.07;3.00;;;;;;;;;;5049796;28;20182;-72
2022/10/09 09:39:39;;;;;;;3.33;2.80;;;;;;;;;;5031325;28;20190;-71
2022/10/09 09:42:08;;;;;;;3.97;3.13;;;;;;;;;;5034996;28;20174;-72
2022/10/09 09:44:35;;;;;;;3.67;2.87;;;;;;;;;;5033003;28;20203;-72
2022/10/09 09:47:00;;;;;;;3.60;2.70;;;;;;;;;;5030919;28;20209;-73
2022/10/09 09:49:27;;;;;;;4.13;2.63;;;;;;;;;;5032309;28;20206;-72
2022/10/09 09:51:54;;;;;;;5.30;2.83;;;;;;;;;;5034656;28;20214;-72
2022/10/09 09:54:21;;;;;;;2.53;2.33;;;;;;;;;;5032912;28;20186;-72
2022/10/09 09:56:47;;;;;;;3.27;2.83;;;;;;;;;;5033467;28;20263;-73
2022/10/09 09:59:31;;;;;;;3.10;2.50;;;;;;;;;;5033188;28;20192;-72
2022/10/09 10:02:09;;;;;;;4.33;2.30;;;;;;;;;;5026338;28;20208;-72
2022/10/09 10:04:34;;;;;;;3.27;2.63;;;;;;;;;;5033056;28;20328;-72
2022/10/09 10:06:59;;;;;;;4.10;2.67;;;;;;;;;;5032722;28;20346;-71
2022/10/09 10:09:25;;;;;;;3.33;2.27;;;;;;;;;;5027214;28;20172;-72
2022/10/09 10:11:56;;;;;;;4.57;2.80;;;;;;;;;;5026169;28;20208;-72
2022/10/09 10:14:21;;;;;;;4.70;2.97;;;;;;;;;;5029036;28;20218;-72
2022/10/09 10:16:47;;;;;;;4.13;2.80;;;;;;;;;;5033134;28;20216;-73
2022/10/09 10:19:23;;;;;;;5.23;2.80;;;;;;;;;;5030082;28;20182;-72
2022/10/09 10:22:05;;;;;;;4.43;2.90;;;;;;;;;;5025122;28;20192;-72
2022/10/09 10:24:32;;;;;;;4.90;2.90;;;;;;;;;;5031196;28;20220;-72
2022/10/09 10:27:18;;;;;;;5.00;2.37;;;;;;;;;;5030520;28;20183;-72
2022/10/09 10:29:45;;;;;;;3.53;2.30;;;;;;;;;;5016478;28;20189;-73
2022/10/09 10:32:23;;;;;;;4.30;2.43;;;;;;;;;;5031730;28;20182;-72
2022/10/09 10:34:54;;;;;;;2.83;2.00;;;;;;;;;;5031365;28;20178;-71
2022/10/09 10:37:38;;;;;;;3.43;2.43;;;;;;;;;;5027395;28;20195;-72
2022/10/09 10:40:06;;;;;;;5.27;2.77;;;;;;;;;;5033141;28;20210;-72
2022/10/09 10:42:31;;;;;;;4.73;2.50;;;;;;;;;;5027995;28;20191;-72
2022/10/09 10:45:08;;;;;;;3.30;2.30;;;;;;;;;;5032209;28;20196;-72
2022/10/09 10:47:34;;;;;;;5.00;2.37;;;;;;;;;;5041393;28;20319;-72
2022/10/09 10:50:00;;;;;;;3.07;2.07;;;;;;;;;;5039530;28;20216;-72
2022/10/09 10:52:55;;;;;;;5.20;2.33;;;;;;;;;;5041543;28;20208;-78
2022/10/09 10:55:25;;;;;;;3.47;2.30;;;;;;;;;;4970174;28;20201;-72
2022/10/09 10:58:09;;;;;;;3.07;2.23;;;;;;;;;;5029419;28;20583;-72
2022/10/09 11:00:37;;;;;;;2.83;2.00;;;;;;;;;;5028641;28;20186;-72
2022/10/09 11:03:06;;;;;;;3.30;2.40;;;;;;;;;;5030305;28;20229;-73
2022/10/09 11:05:34;;;;;;;3.23;2.13;;;;;;;;;;5031466;28;20202;-72
2022/10/09 11:08:09;;;;;;;3.33;2.10;;;;;;;;;;5027092;28;20276;-73
2022/10/09 11:10:40;;;;;;;3.93;2.53;;;;;;;;;;5041766;28;20185;-73
2022/10/09 11:13:05;;;;;;;1.90;1.43;;;;;;;;;;5030103;28;20177;-72
2022/10/09 11:15:39;;;;;;;6.25;2.83;;;;;;;;;;5045686;28;20566;-73
2022/10/09 11:18:18;;;;;;;3.40;2.30;;;;;;;;;;5031377;28;20265;-72
2022/10/09 11:21:04;;;;;;;3.40;2.00;;;;;;;;;;5030738;28;20189;-72
2022/10/09 11:23:32;;;;;;;3.00;2.23;;;;;;;;;;5032714;28;20178;-72
2022/10/09 11:26:12;;;;;;;2.73;2.40;;;;;;;;;;5027790;28;20220;-72
2022/10/09 11:29:06;;;;;;;3.13;2.40;;;;;;;;;;5026070;28;20197;-72
2022/10/09 11:31:43;;;;;;;2.37;2.10;;;;;;;;;;5017995;28;20254;-73
2022/10/09 11:34:12;;;;;;;1.83;1.70;;;;;;;;;;5032125;28;20174;-73
2022/10/09 11:36:42;;;;;;;4.33;2.80;;;;;;;;;;5029386;28;20194;-73
2022/10/09 11:39:17;;;;;;;2.37;2.17;;;;;;;;;;5030643;28;20186;-73
2022/10/09 11:41:45;;;;;;;3.13;1.83;;;;;;;;;;5029159;28;20190;-73
2022/10/09 11:44:13;;;;;;;1.93;1.80;;;;;;;;;;5046056;28;20205;-72
2022/10/09 11:46:41;;;;;;;5.47;2.53;;;;;;;;;;5033380;28;20289;-72
2022/10/09 11:49:06;;;;;;;4.37;2.30;;;;;;;;;;5025798;28;20222;-72
2022/10/09 11:51:43;;;;;;;3.33;2.03;;;;;;;;;;5029456;28;20222;-72
2022/10/09 11:54:11;;;;;;;4.77;2.30;;;;;;;;;;5029959;28;20388;-72
2022/10/09 11:56:37;;;;;;;3.97;2.10;;;;;;;;;;5031563;28;20194;-73
2022/10/09 11:59:05;;;;;;;5.23;2.20;;;;;;;;;;5031436;28;20186;-72
2022/10/09 12:01:32;;;;;;;3.47;2.30;;;;;;;;;;5044695;28;20188;-73
2022/10/09 12:04:14;;;;;;;5.63;2.27;;;;;;;;;;5044170;28;20209;-72
2022/10/09 12:06:48;;;;;;;3.13;2.13;;;;;;;;;;5029946;28;20588;-72
2022/10/09 12:09:22;;;;;;;3.90;2.23;;;;;;;;;;5030387;28;20182;-72
2022/10/09 12:11:58;;;;;;;4.13;2.10;;;;;;;;;;5041792;28;20187;-72
2022/10/09 12:14:24;;;;;;;3.00;2.07;;;;;;;;;;5032673;28;20186;-72
2022/10/09 12:16:50;;;;;;;3.73;2.37;;;;;;;;;;5028891;28;20241;-72
2022/10/09 12:19:17;;;;;;;3.90;2.30;;;;;;;;;;5044019;28;20183;-73
2022/10/09 12:22:01;;;;;;;4.63;1.90;;;;;;;;;;5028265;28;20234;-72
2022/10/09 12:24:30;;;;;;;5.97;2.23;;;;;;;;;;5028780;28;20325;-72
2022/10/09 12:26:58;;;;;;;4.83;2.20;;;;;;;;;;5030520;28;20203;-72
2022/10/09 12:29:29;;;;;;;3.83;2.23;;;;;;;;;;5028786;28;20176;-72
2022/10/09 12:32:00;;;;;;;2.87;2.27;;;;;;;;;;5027376;28;20189;-72
2022/10/09 12:34:35;;;;;;;2.20;1.97;;;;;;;;;;5043019;28;20185;-73
2022/10/09 12:37:08;;;;;;;7.10;2.47;;;;;;;;;;5026567;28;20746;-72
2022/10/09 12:39:36;;;;;;;3.27;1.60;;;;;;;;;;5027814;28;20195;-73
2022/10/09 12:42:01;;;;;;;4.43;2.00;;;;;;;;;;5030119;28;20225;-73
2022/10/09 12:44:37;;;;;;;5.17;2.43;;;;;;;;;;5029534;28;20217;-72
2022/10/09 12:47:05;;;;;;;3.93;1.87;;;;;;;;;;5030323;28;20203;-72
2022/10/09 12:49:30;;;;;;;2.90;2.00;;;;;;;;;;5029645;28;20223;-72
2022/10/09 12:51:56;;;;;;;4.00;2.10;;;;;;;;;;5027519;28;20213;-71
2022/10/09 12:54:23;;;;;;;2.50;1.97;;;;;;;;;;5029072;28;20214;-72
2022/10/09 12:56:49;;;;;;;3.50;2.43;;;;;;;;;;5025363;28;20203;-72
2022/10/09 12:59:15;;;;;;;3.70;1.77;;;;;;;;;;5035346;28;20219;-73
2022/10/09 13:01:41;;;;;;;5.77;2.40;;;;;;;;;;5033576;28;20196;-73
2022/10/09 13:04:09;;;;;;;2.10;1.87;;;;;;;;;;5045868;28;20196;-73
2022/10/09 13:06:42;;;;;;;2.20;2.00;;;;;;;;;;5028621;28;20260;-73
2022/10/09 13:09:16;;;;;;;3.60;1.73;;;;;;;;;;5027759;28;20175;-73
2022/10/09 13:11:43;;;;;;;5.43;2.03;;;;;;;;;;5023162;28;20187;-72
2022/10/09 13:14:25;;;;;;;5.00;2.23;;;;;;;;;;5027302;28;20240;-72
2022/10/09 13:16:51;;;;;;;3.03;2.00;;;;;;;;;;5030383;28;20183;-72
2022/10/09 13:19:19;;;;;;;4.23;1.63;;;;;;;;;;5028524;28;20176;-73
2022/10/09 13:21:44;;;;;;;1.70;1.60;;;;;;;;;;5027171;28;20178;-73
2022/10/09 13:24:11;;;;;;;3.07;1.90;;;;;;;;;;5029410;28;20181;-72
2022/10/09 13:26:38;;;;;;;3.37;2.10;;;;;;;;;;5027004;28;20263;-72
2022/10/09 13:29:05;;;;;;;4.10;2.10;;;;;;;;;;5045459;28;20180;-72
2022/10/09 13:31:32;;;;;;;2.60;1.80;;;;;;;;;;5029824;28;20192;-72
2022/10/09 13:33:57;;;;;;;3.73;2.00;;;;;;;;;;5028413;28;20186;-73
2022/10/09 13:36:23;;;;;;;3.57;1.97;;;;;;;;;;5039575;28;20182;-73
2022/10/09 13:38:48;;;;;;;3.27;2.20;;;;;;;;;;5029073;28;20247;-73
2022/10/09 13:41:15;;;;;;;2.50;1.90;;;;;;;;;;5026717;28;20177;-72
2022/10/09 13:43:41;;;;;;;2.70;1.60;;;;;;;;;;5030348;28;20218;-73
2022/10/09 13:46:06;;;;;;;2.77;1.43;;;;;;;;;;5029278;28;20213;-72
2022/10/09 13:48:32;;;;;;;1.90;1.80;;;;;;;;;;5025298;28;20249;-73
2022/10/09 13:50:58;;;;;;;2.10;1.70;;;;;;;;;;5028769;28;20179;-72
2022/10/09 13:53:24;;;;;;;2.63;1.93;;;;;;;;;;5032431;28;20185;-72
2022/10/09 13:55:51;;;;;;;4.17;1.87;;;;;;;;;;5028255;28;20175;-73
2022/10/09 13:58:16;;;;;;;3.07;1.80;;;;;;;;;;5025132;28;20185;-72
2022/10/09 14:00:43;;;;;;;3.23;1.87;;;;;;;;;;5042398;28;20307;-73
2022/10/09 14:03:08;;;;;;;3.40;1.93;;;;;;;;;;5027050;28;20181;-72
2022/10/09 14:05:33;;;;;;;2.37;2.17;;;;;;;;;;5028980;28;20202;-73
2022/10/09 14:07:58;;;;;;;4.63;2.43;;;;;;;;;;5028647;28;20194;-72
2022/10/09 14:10:23;;;;;;;3.70;1.77;;;;;;;;;;5026823;28;20187;-73
2022/10/09 14:12:51;;;;;;;3.27;1.33;;;;;;;;;;5030130;28;20179;-73
2022/10/09 14:15:17;;;;;;;1.80;1.70;;;;;;;;;;5049430;28;20178;-72
2022/10/09 14:17:42;;;;;;;4.37;1.60;;;;;;;;;;5030799;28;20199;-72
2022/10/09 14:20:07;;;;;;;5.27;2.07;;;;;;;;;;5032094;28;20200;-73
2022/10/09 14:22:32;;;;;;;3.57;1.93;;;;;;;;;;5036815;28;20178;-73
2022/10/09 14:24:58;;;;;;;2.90;1.83;;;;;;;;;;5031899;28;20202;-72
2022/10/09 14:27:23;;;;;;;5.43;2.00;;;;;;;;;;5031412;28;20189;-73
2022/10/09 14:29:48;;;;;;;3.37;2.00;;;;;;;;;;5030237;28;20182;-72
2022/10/09 14:32:13;;;;;;;1.63;1.53;;;;;;;;;;5029038;28;20177;-72
2022/10/09 14:34:38;;;;;;;2.73;1.63;;;;;;;;;;5032293;28;20175;-73
2022/10/09 14:37:04;;;;;;;3.83;1.67;;;;;;;;;;5041564;28;20184;-73
2022/10/09 14:39:29;;;;;;;4.30;2.13;;;;;;;;;;5042600;28;20386;-73
2022/10/09 14:41:55;;;;;;;1.90;1.53;;;;;;;;;;5025811;28;20176;-73
2022/10/09 14:44:20;;;;;;;5.93;1.97;;;;;;;;;;5031761;28;20199;-73
2022/10/09 14:46:45;;;;;;;3.23;1.83;;;;;;;;;;5023951;28;20249;-74